Time;durP1;ratioP1;P1;durP2;ratioP2;P2;SDS_P1;SDS_P2;PMS_P1;PMS_P2;Temp;Humidity;BMP_temperature;BMP_pressure;BME280_temperature;BME280_humidity;BME280_pressure;Samples;Min_cycle;Max_cycle;Signal;HPM_P1;HPM_P2
2021/01/07 00:00:21;;;;;;;0.73;0.73;;;19.60;48.00;;;;;;5056199;28;21071;-67
2021/01/07 00:02:48;;;;;;;0.80;0.80;;;19.70;48.00;;;;;;5018066;28;20520;-68
2021/01/07 00:05:14;;;;;;;0.73;0.63;;;19.60;48.10;;;;;;5031481;28;20526;-67
2021/01/07 00:07:41;;;;;;;1.00;1.00;;;19.60;48.10;;;;;;5033574;28;20497;-67
2021/01/07 00:10:08;;;;;;;0.60;0.60;;;19.60;48.00;;;;;;5027452;28;20486;-68
2021/01/07 00:12:34;;;;;;;0.90;0.90;;;19.50;48.00;;;;;;5017829;28;20505;-69
2021/01/07 00:15:01;;;;;;;0.73;0.73;;;19.50;48.00;;;;;;5022164;28;20483;-69
2021/01/07 00:17:27;;;;;;;0.83;0.83;;;19.50;48.00;;;;;;5036083;28;20479;-69
2021/01/07 00:19:53;;;;;;;0.80;0.80;;;19.50;47.90;;;;;;5043534;28;20501;-69
2021/01/07 00:22:19;;;;;;;0.60;0.60;;;19.50;47.90;;;;;;5039069;28;20479;-69
2021/01/07 00:24:46;;;;;;;0.60;0.60;;;19.50;47.90;;;;;;5034339;28;20479;-69
2021/01/07 00:27:13;;;;;;;0.70;0.70;;;19.50;47.90;;;;;;5051320;28;20490;-70
2021/01/07 00:29:39;;;;;;;0.70;0.70;;;19.50;48.10;;;;;;5032486;28;20521;-70
2021/01/07 00:32:06;;;;;;;0.70;0.70;;;19.40;48.00;;;;;;5053695;28;21442;-70
2021/01/07 00:34:32;;;;;;;0.70;0.70;;;19.40;48.00;;;;;;5039085;28;20490;-70
2021/01/07 00:36:58;;;;;;;0.70;0.70;;;19.40;48.00;;;;;;5052575;28;21098;-70
2021/01/07 00:39:25;;;;;;;0.80;0.80;;;19.40;48.00;;;;;;5060574;28;20500;-70
2021/01/07 00:41:55;;;;;;;0.70;0.70;;;19.50;47.90;;;;;;5063679;28;20490;-70
2021/01/07 00:44:22;;;;;;;0.50;0.50;;;19.50;48.70;;;;;;5053785;28;20481;-70
2021/01/07 00:46:50;;;;;;;0.60;0.60;;;19.50;47.90;;;;;;5052291;28;20574;-69
2021/01/07 00:49:16;;;;;;;0.80;0.80;;;19.40;47.80;;;;;;5043703;28;20466;-69
2021/01/07 00:51:42;;;;;;;0.60;0.60;;;19.50;47.80;;;;;;5057142;28;20476;-70
2021/01/07 00:54:09;;;;;;;0.60;0.60;;;19.40;47.70;;;;;;5048454;28;20466;-69
2021/01/07 00:56:36;;;;;;;0.60;0.60;;;19.40;47.70;;;;;;5047254;28;20493;-69
2021/01/07 00:59:04;;;;;;;0.70;0.70;;;19.40;47.60;;;;;;5044422;28;20490;-70
2021/01/07 01:01:31;;;;;;;0.67;0.67;;;19.40;47.60;;;;;;5046024;28;20513;-70
2021/01/07 01:03:57;;;;;;;0.60;0.60;;;19.40;47.50;;;;;;5052529;28;20481;-70
2021/01/07 01:06:30;;;;;;;0.70;0.70;;;19.40;47.50;;;;;;5055379;28;20486;-69
2021/01/07 01:08:56;;;;;;;0.70;0.70;;;19.40;47.50;;;;;;5046546;28;20486;-69
2021/01/07 01:11:22;;;;;;;0.80;0.80;;;19.40;48.30;;;;;;5033455;28;20505;-69
2021/01/07 01:13:48;;;;;;;0.70;0.70;;;19.40;47.50;;;;;;5010997;28;20477;-69
2021/01/07 01:16:15;;;;;;;0.50;0.50;;;19.40;47.50;;;;;;5052740;28;20477;-69
2021/01/07 01:18:41;;;;;;;0.70;0.70;;;19.40;47.50;;;;;;5061658;28;20485;-69
2021/01/07 01:21:08;;;;;;;0.50;0.50;;;19.40;47.50;;;;;;5054324;28;20922;-69
2021/01/07 01:23:34;;;;;;;0.60;0.60;;;19.40;47.40;;;;;;5056823;28;20539;-69
2021/01/07 01:26:00;;;;;;;0.60;0.60;;;19.40;47.60;;;;;;5057003;28;21299;-69
2021/01/07 01:28:27;;;;;;;0.70;0.70;;;19.40;47.50;;;;;;5053913;28;21683;-70
2021/01/07 01:30:53;;;;;;;0.70;0.70;;;19.40;47.40;;;;;;5051851;28;20524;-70
2021/01/07 01:33:20;;;;;;;0.63;0.63;;;19.40;47.30;;;;;;5059261;28;20473;-69
2021/01/07 01:35:46;;;;;;;0.90;0.90;;;19.40;47.30;;;;;;5053578;28;20507;-70
2021/01/07 01:38:12;;;;;;;0.77;0.77;;;19.40;47.20;;;;;;5059908;28;20493;-70
2021/01/07 01:40:38;;;;;;;0.63;0.63;;;19.50;47.30;;;;;;5053825;28;20484;-69
2021/01/07 01:43:05;;;;;;;0.57;0.57;;;19.50;47.10;;;;;;5072756;28;20481;-70
2021/01/07 01:45:31;;;;;;;0.60;0.60;;;19.50;47.30;;;;;;5054539;28;20489;-69
2021/01/07 01:47:58;;;;;;;0.63;0.63;;;19.50;47.10;;;;;;5056967;28;21063;-69
2021/01/07 01:50:25;;;;;;;0.80;0.80;;;19.50;47.10;;;;;;5060176;28;20491;-69
2021/01/07 01:52:51;;;;;;;0.73;0.73;;;19.50;47.10;;;;;;5059735;28;21017;-69
2021/01/07 01:55:17;;;;;;;0.73;0.73;;;19.50;47.10;;;;;;5053639;28;20473;-69
2021/01/07 01:57:44;;;;;;;0.80;0.80;;;19.50;47.90;;;;;;5068937;28;20506;-69
2021/01/07 02:00:11;;;;;;;0.60;0.60;;;19.50;47.20;;;;;;5059641;28;20477;-70
2021/01/07 02:02:37;;;;;;;0.60;0.60;;;19.40;47.00;;;;;;5059113;28;20534;-70
2021/01/07 02:05:05;;;;;;;0.90;0.90;;;19.40;47.00;;;;;;5057127;28;20512;-69
2021/01/07 02:07:32;;;;;;;0.80;0.80;;;19.40;47.00;;;;;;5058344;28;20860;-70
2021/01/07 02:09:59;;;;;;;0.90;0.90;;;19.40;47.00;;;;;;5063696;28;22016;-70
2021/01/07 02:12:25;;;;;;;0.90;0.90;;;19.40;47.00;;;;;;5069565;28;20492;-70
2021/01/07 02:14:51;;;;;;;0.80;0.80;;;19.40;47.00;;;;;;5049688;28;21368;-69
2021/01/07 02:17:17;;;;;;;1.13;1.13;;;19.40;47.10;;;;;;5036985;28;20488;-69
2021/01/07 02:19:44;;;;;;;1.20;1.20;;;19.40;47.00;;;;;;5051290;28;20489;-70
2021/01/07 02:22:12;;;;;;;0.70;0.70;;;19.40;47.00;;;;;;5060962;28;20500;-71
2021/01/07 02:24:38;;;;;;;1.00;1.00;;;19.40;47.00;;;;;;5038181;28;20492;-69
2021/01/07 02:27:06;;;;;;;0.70;0.70;;;19.40;47.00;;;;;;5058217;28;20553;-69
2021/01/07 02:29:32;;;;;;;0.90;0.90;;;19.40;46.90;;;;;;5059485;28;20493;-69
2021/01/07 02:31:58;;;;;;;0.90;0.90;;;19.40;46.90;;;;;;5071565;28;21001;-70
2021/01/07 02:34:25;;;;;;;1.00;1.00;;;19.40;46.80;;;;;;5029880;28;20564;-69
2021/01/07 02:36:51;;;;;;;0.70;0.70;;;19.40;46.90;;;;;;5069602;28;20481;-69
2021/01/07 02:39:18;;;;;;;0.73;0.73;;;19.40;46.70;;;;;;5047348;28;20555;-69
2021/01/07 02:41:50;;;;;;;0.73;0.73;;;19.40;46.70;;;;;;5062813;28;20481;-69
2021/01/07 02:44:16;;;;;;;0.87;0.87;;;19.40;46.70;;;;;;5055596;28;20494;-69
2021/01/07 02:46:42;;;;;;;0.77;0.77;;;19.40;46.70;;;;;;5059831;28;21735;-69
2021/01/07 02:49:08;;;;;;;0.70;0.70;;;19.40;46.70;;;;;;5062595;28;20481;-69
2021/01/07 02:51:34;;;;;;;0.77;0.77;;;19.40;46.70;;;;;;5050085;28;20489;-69
2021/01/07 02:54:02;;;;;;;0.63;0.63;;;19.40;46.70;;;;;;5063515;28;20492;-69
2021/01/07 02:56:30;;;;;;;0.80;0.80;;;19.40;46.70;;;;;;5053589;28;20469;-69
2021/01/07 02:58:56;;;;;;;0.73;0.73;;;19.40;46.70;;;;;;5053730;28;20551;-69
2021/01/07 03:01:22;;;;;;;0.73;0.73;;;19.30;46.60;;;;;;5031082;28;20865;-69
2021/01/07 03:03:48;;;;;;;0.80;0.80;;;19.40;46.70;;;;;;5029518;28;20478;-69
2021/01/07 03:06:14;;;;;;;0.80;0.80;;;19.40;46.60;;;;;;5044996;28;20478;-69
2021/01/07 03:08:41;;;;;;;1.10;1.10;;;19.40;46.50;;;;;;5047758;28;20494;-69
2021/01/07 03:11:07;;;;;;;0.90;0.90;;;19.40;46.40;;;;;;5052239;28;20489;-70
2021/01/07 03:13:34;;;;;;;0.90;0.90;;;19.40;46.40;;;;;;5028047;28;20498;-70
2021/01/07 03:16:00;;;;;;;1.07;1.07;;;19.40;46.30;;;;;;5042947;28;20483;-69
2021/01/07 03:18:26;;;;;;;0.97;0.97;;;19.40;46.40;;;;;;5026772;28;20499;-69
2021/01/07 03:20:52;;;;;;;0.90;0.90;;;19.40;46.40;;;;;;5041729;28;20490;-69
2021/01/07 03:23:19;;;;;;;1.70;1.60;;;19.40;46.40;;;;;;5041432;28;20470;-69
2021/01/07 03:25:45;;;;;;;0.73;0.73;;;19.40;46.40;;;;;;5036133;28;20523;-69
2021/01/07 03:28:11;;;;;;;0.90;0.90;;;19.40;46.40;;;;;;5046760;28;20469;-69
2021/01/07 03:30:38;;;;;;;0.87;0.87;;;19.40;46.40;;;;;;5049435;28;20505;-69
2021/01/07 03:33:04;;;;;;;1.10;1.10;;;19.40;46.40;;;;;;5069702;28;20498;-69
2021/01/07 03:35:30;;;;;;;0.90;0.90;;;19.40;46.40;;;;;;5054475;28;20507;-69
2021/01/07 03:37:56;;;;;;;1.10;1.10;;;19.40;46.50;;;;;;5052384;28;20485;-69
2021/01/07 03:40:23;;;;;;;1.20;1.17;;;19.40;46.50;;;;;;5057074;28;20478;-70
2021/01/07 03:42:49;;;;;;;1.10;1.10;;;19.40;46.40;;;;;;5055798;28;20482;-69
2021/01/07 03:45:15;;;;;;;0.90;0.90;;;19.40;46.30;;;;;;5046827;28;20479;-69
2021/01/07 03:47:42;;;;;;;0.93;0.93;;;19.40;46.10;;;;;;5041428;28;20481;-69
2021/01/07 03:50:10;;;;;;;1.07;1.07;;;19.40;46.10;;;;;;5054122;28;20500;-70
2021/01/07 03:52:36;;;;;;;1.20;1.20;;;19.50;46.20;;;;;;5058042;28;20489;-69
2021/01/07 03:55:03;;;;;;;0.93;0.93;;;19.50;46.20;;;;;;5051104;28;20501;-69
2021/01/07 03:57:29;;;;;;;1.00;1.00;;;19.50;46.20;;;;;;5036112;28;21251;-69
2021/01/07 03:59:55;;;;;;;1.10;1.10;;;19.50;46.20;;;;;;5057704;28;20539;-70
2021/01/07 04:02:21;;;;;;;0.93;0.93;;;19.50;46.20;;;;;;5039690;28;20908;-68
2021/01/07 04:04:48;;;;;;;0.90;0.90;;;19.50;46.20;;;;;;5035531;28;20479;-69
2021/01/07 04:07:14;;;;;;;0.80;0.80;;;19.50;46.20;;;;;;5044978;28;20477;-69
2021/01/07 04:09:41;;;;;;;1.03;1.03;;;19.50;46.20;;;;;;5034997;28;20483;-69
2021/01/07 04:12:07;;;;;;;0.90;0.90;;;19.40;46.10;;;;;;5022404;28;20561;-69
2021/01/07 04:14:33;;;;;;;0.80;0.80;;;19.40;46.10;;;;;;5042873;28;20535;-70
2021/01/07 04:17:00;;;;;;;1.07;1.07;;;19.30;46.00;;;;;;5053438;28;20482;-69
2021/01/07 04:19:26;;;;;;;0.90;0.90;;;19.30;45.90;;;;;;5034328;28;20486;-70
2021/01/07 04:21:53;;;;;;;1.10;1.10;;;19.30;46.00;;;;;;5042475;28;20540;-70
2021/01/07 04:24:19;;;;;;;0.97;0.97;;;19.30;45.50;;;;;;5031242;28;20494;-69
2021/01/07 04:26:45;;;;;;;1.00;1.00;;;19.30;45.50;;;;;;5030524;28;20473;-70
2021/01/07 04:29:12;;;;;;;1.10;1.10;;;19.30;45.50;;;;;;5033989;28;20475;-69
2021/01/07 04:31:38;;;;;;;0.93;0.93;;;19.30;45.60;;;;;;5033384;28;20523;-69
2021/01/07 04:34:05;;;;;;;0.77;0.77;;;19.30;45.60;;;;;;5054101;28;20513;-69
2021/01/07 04:36:31;;;;;;;1.00;1.00;;;19.30;45.70;;;;;;5033038;28;20528;-69
2021/01/07 04:38:58;;;;;;;0.83;0.83;;;19.30;45.80;;;;;;5051035;28;20474;-69
2021/01/07 04:41:24;;;;;;;1.10;1.10;;;19.30;45.70;;;;;;5056975;28;20473;-70
2021/01/07 04:43:55;;;;;;;0.97;0.97;;;19.30;45.60;;;;;;5056821;28;20484;-69
2021/01/07 04:46:21;;;;;;;0.90;0.90;;;19.30;45.60;;;;;;5036967;28;20493;-69
2021/01/07 04:48:47;;;;;;;1.00;1.00;;;19.30;45.70;;;;;;5055190;28;21004;-69
2021/01/07 04:51:13;;;;;;;0.80;0.80;;;19.30;45.90;;;;;;5043191;28;21141;-69
2021/01/07 04:53:40;;;;;;;1.10;1.10;;;19.30;45.90;;;;;;5055679;28;21521;-68
2021/01/07 04:56:07;;;;;;;1.07;1.07;;;19.30;45.80;;;;;;5035475;28;20498;-70
2021/01/07 04:58:33;;;;;;;1.00;1.00;;;19.30;45.80;;;;;;5054145;28;20489;-69
2021/01/07 05:00:59;;;;;;;0.77;0.77;;;19.30;45.90;;;;;;5040725;28;21358;-69
2021/01/07 05:03:25;;;;;;;0.90;0.90;;;19.30;45.70;;;;;;5046486;28;20545;-69
2021/01/07 05:05:52;;;;;;;1.50;1.50;;;19.30;45.70;;;;;;5057451;28;20477;-69
2021/01/07 05:08:18;;;;;;;1.07;1.07;;;19.30;45.60;;;;;;5035887;28;22082;-69
2021/01/07 05:10:46;;;;;;;0.90;0.90;;;19.30;45.30;;;;;;5029484;28;21209;-69
2021/01/07 05:13:14;;;;;;;0.97;0.93;;;19.30;45.30;;;;;;5012251;28;20474;-69
2021/01/07 05:15:40;;;;;;;0.90;0.90;;;19.30;45.30;;;;;;5031100;28;20869;-70
2021/01/07 05:18:06;;;;;;;0.83;0.83;;;19.30;45.10;;;;;;5033731;28;21066;-70
2021/01/07 05:20:32;;;;;;;0.80;0.80;;;19.40;45.20;;;;;;5034422;28;20486;-70
2021/01/07 05:22:59;;;;;;;0.90;0.90;;;19.40;44.90;;;;;;5057151;28;20478;-69
2021/01/07 05:25:29;;;;;;;0.93;0.93;;;19.40;45.00;;;;;;5055732;28;20631;-69
2021/01/07 05:27:55;;;;;;;1.20;1.20;;;19.40;44.90;;;;;;5044155;28;20490;-69
2021/01/07 05:30:23;;;;;;;0.80;0.80;;;19.30;44.90;;;;;;5050750;28;20484;-69
2021/01/07 05:32:49;;;;;;;0.77;0.77;;;19.30;44.90;;;;;;5062448;28;20489;-69
2021/01/07 05:35:18;;;;;;;0.90;0.90;;;19.30;44.90;;;;;;5050508;28;20546;-70
2021/01/07 05:37:45;;;;;;;0.80;0.80;;;19.30;45.80;;;;;;5037109;28;20495;-70
2021/01/07 05:40:11;;;;;;;1.20;1.20;;;19.30;44.90;;;;;;5029382;28;20474;-69
2021/01/07 05:42:38;;;;;;;0.80;0.80;;;19.30;44.80;;;;;;5062211;28;20482;-69
2021/01/07 05:45:07;;;;;;;1.00;1.00;;;19.40;45.00;;;;;;5042648;28;20482;-69
2021/01/07 05:47:39;;;;;;;0.83;0.83;;;19.40;44.90;;;;;;5053291;28;20486;-69
2021/01/07 05:50:06;;;;;;;1.00;1.00;;;19.50;44.90;;;;;;5043242;28;20484;-69
2021/01/07 05:52:33;;;;;;;0.70;0.70;;;19.40;45.10;;;;;;5045076;28;20512;-70
2021/01/07 05:54:59;;;;;;;1.00;1.00;;;19.50;44.80;;;;;;5034639;28;20498;-70
2021/01/07 05:57:26;;;;;;;1.30;1.30;;;19.50;44.60;;;;;;5021519;28;20481;-70
2021/01/07 05:59:53;;;;;;;1.33;1.23;;;19.50;44.80;;;;;;5030060;28;21006;-69
2021/01/07 06:02:19;;;;;;;1.33;1.33;;;19.50;44.30;;;;;;5025619;28;20999;-69
2021/01/07 06:04:48;;;;;;;1.60;1.60;;;19.50;44.30;;;;;;5046509;28;21144;-69
2021/01/07 06:07:15;;;;;;;1.33;1.33;;;19.60;44.40;;;;;;5031304;28;20582;-69
2021/01/07 06:09:41;;;;;;;1.53;1.43;;;19.60;44.20;;;;;;5046655;28;20534;-70
2021/01/07 06:12:08;;;;;;;1.33;1.33;;;19.60;44.20;;;;;;5041176;28;20503;-70
2021/01/07 06:14:34;;;;;;;1.50;1.50;;;19.60;44.00;;;;;;5052716;28;20989;-69
2021/01/07 06:17:00;;;;;;;1.40;1.40;;;19.60;43.90;;;;;;5045887;28;20493;-69
2021/01/07 06:19:31;;;;;;;2.20;2.10;;;19.60;43.70;;;;;;5046500;28;20500;-69
2021/01/07 06:21:59;;;;;;;1.87;1.80;;;19.50;44.10;;;;;;5025372;28;20512;-69
2021/01/07 06:24:26;;;;;;;1.60;1.50;;;19.50;44.10;;;;;;5045751;28;20489;-69
2021/01/07 06:26:52;;;;;;;1.40;1.30;;;19.50;43.80;;;;;;5046422;28;20525;-69
2021/01/07 06:29:19;;;;;;;1.87;1.77;;;19.50;43.80;;;;;;5041737;28;21020;-70
2021/01/07 06:31:45;;;;;;;1.63;1.53;;;19.50;43.30;;;;;;5042803;28;20496;-69
2021/01/07 06:34:12;;;;;;;1.50;1.40;;;19.60;43.50;;;;;;5036714;28;20526;-68
2021/01/07 06:36:39;;;;;;;2.17;2.07;;;19.60;43.50;;;;;;5029160;28;20490;-69
2021/01/07 06:39:06;;;;;;;1.60;1.50;;;19.60;43.40;;;;;;5038477;28;20482;-69
2021/01/07 06:41:33;;;;;;;1.70;1.60;;;19.60;43.30;;;;;;5041509;28;20542;-68
2021/01/07 06:43:59;;;;;;;1.33;1.33;;;19.60;43.30;;;;;;5043829;28;20489;-69
2021/01/07 06:46:39;;;;;;;1.00;1.00;;;19.60;43.30;;;;;;5064467;28;21252;-69
2021/01/07 06:49:21;;;;;;;1.50;1.50;;;19.50;43.30;;;;;;5055352;28;20496;-69
2021/01/07 06:51:58;;;;;;;1.70;1.60;;;19.50;43.50;;;;;;5022749;28;20490;-67
2021/01/07 06:54:30;;;;;;;1.30;1.30;;;19.50;43.40;;;;;;5057063;28;20496;-69
2021/01/07 06:56:56;;;;;;;1.27;1.27;;;19.50;42.80;;;;;;5057718;28;20500;-69
2021/01/07 06:59:23;;;;;;;1.20;1.20;;;19.50;42.60;;;;;;5052111;28;20544;-69
2021/01/07 07:01:51;;;;;;;1.03;1.03;;;19.50;42.50;;;;;;5037888;28;20477;-69
2021/01/07 07:04:24;;;;;;;0.90;0.90;;;19.50;42.90;;;;;;5048508;28;20874;-69
2021/01/07 07:06:56;;;;;;;1.50;1.03;;;19.50;42.80;;;;;;5037279;28;20564;-69
2021/01/07 07:09:22;;;;;;;2.63;1.10;;;19.50;42.70;;;;;;5024637;28;20506;-70
2021/01/07 07:11:52;;;;;;;4.20;1.13;;;19.50;42.80;;;;;;5057663;28;20495;-69
2021/01/07 07:14:19;;;;;;;0.97;0.97;;;19.60;43.10;;;;;;5034790;28;20490;-69
2021/01/07 07:16:45;;;;;;;0.90;0.90;;;19.60;43.20;;;;;;5039569;28;20494;-70
2021/01/07 07:19:11;;;;;;;1.20;1.20;;;19.60;43.20;;;;;;5035300;28;20562;-69
2021/01/07 07:21:37;;;;;;;0.97;0.97;;;19.60;43.40;;;;;;5020166;28;21244;-69
2021/01/07 07:24:10;;;;;;;0.70;0.70;;;19.60;43.40;;;;;;5023797;28;20491;-69
2021/01/07 07:26:38;;;;;;;0.90;0.90;;;19.60;43.50;;;;;;5013315;28;20481;-69
2021/01/07 07:29:07;;;;;;;0.70;0.70;;;19.60;43.90;;;;;;5034707;28;20489;-69
2021/01/07 07:31:44;;;;;;;0.73;0.73;;;19.60;43.90;;;;;;5054905;28;20485;-70
2021/01/07 07:34:11;;;;;;;0.73;0.73;;;19.60;44.10;;;;;;5034270;28;21662;-69
2021/01/07 07:36:37;;;;;;;0.90;0.90;;;19.60;44.20;;;;;;5061390;28;20512;-69
2021/01/07 07:39:04;;;;;;;0.70;0.70;;;19.60;44.20;;;;;;5045134;28;20894;-70
2021/01/07 07:41:31;;;;;;;0.80;0.80;;;19.60;44.20;;;;;;5050152;28;20485;-69
2021/01/07 07:43:57;;;;;;;0.90;0.83;;;19.60;44.20;;;;;;5041425;28;20484;-69
2021/01/07 07:46:25;;;;;;;0.80;0.80;;;19.60;44.30;;;;;;5045012;28;20493;-70
2021/01/07 07:48:57;;;;;;;0.70;0.70;;;19.60;44.30;;;;;;5010047;28;20483;-69
2021/01/07 07:51:23;;;;;;;1.30;0.93;;;19.50;44.30;;;;;;5002548;28;20490;-70
2021/01/07 07:53:50;;;;;;;0.80;0.80;;;19.50;44.40;;;;;;5056716;28;20981;-69
2021/01/07 07:56:22;;;;;;;0.60;0.60;;;19.50;44.40;;;;;;5027834;28;21044;-69
2021/01/07 07:58:48;;;;;;;1.63;0.90;;;19.50;44.60;;;;;;5004285;28;21003;-68
2021/01/07 08:01:14;;;;;;;0.70;0.70;;;19.50;44.50;;;;;;5034195;28;20468;-69
2021/01/07 08:03:41;;;;;;;0.80;0.80;;;19.50;44.50;;;;;;5049264;28;22010;-69
2021/01/07 08:06:08;;;;;;;1.60;0.80;;;19.50;44.50;;;;;;5029463;28;21007;-68
2021/01/07 08:08:34;;;;;;;0.60;0.60;;;19.50;44.70;;;;;;5044229;28;20482;-70
2021/01/07 08:11:01;;;;;;;0.80;0.80;;;19.50;44.80;;;;;;5034053;28;20478;-69
2021/01/07 08:13:28;;;;;;;0.83;0.83;;;19.60;45.60;;;;;;5041854;28;21039;-69
2021/01/07 08:15:55;;;;;;;1.83;0.70;;;19.60;44.80;;;;;;5055384;28;20827;-69
2021/01/07 08:18:22;;;;;;;0.73;0.73;;;19.60;44.80;;;;;;5040566;28;20561;-68
2021/01/07 08:20:51;;;;;;;0.60;0.60;;;19.70;44.80;;;;;;5038351;28;20486;-69
2021/01/07 08:23:17;;;;;;;0.70;0.70;;;19.60;44.60;;;;;;5038275;28;21107;-69
2021/01/07 08:25:45;;;;;;;1.30;1.27;;;19.60;44.60;;;;;;5053863;28;20491;-69
2021/01/07 08:28:21;;;;;;;0.50;0.50;;;19.60;44.70;;;;;;5053548;28;20474;-69
2021/01/07 08:30:49;;;;;;;2.30;1.00;;;19.60;44.70;;;;;;5028194;28;20477;-69
2021/01/07 08:33:16;;;;;;;0.90;0.90;;;19.60;44.70;;;;;;5062828;28;21056;-70
2021/01/07 08:35:42;;;;;;;0.80;0.80;;;19.60;44.70;;;;;;5036218;28;21043;-69
2021/01/07 08:38:10;;;;;;;0.70;0.70;;;19.60;44.90;;;;;;5035259;28;22169;-70
2021/01/07 08:40:36;;;;;;;0.70;0.70;;;19.60;44.80;;;;;;5049242;28;20553;-69
2021/01/07 08:43:12;;;;;;;1.00;1.00;;;19.60;44.80;;;;;;5053368;28;20485;-69
2021/01/07 08:45:39;;;;;;;0.97;0.97;;;19.70;44.90;;;;;;5054703;28;20892;-69
2021/01/07 08:48:06;;;;;;;0.60;0.60;;;19.70;44.90;;;;;;5050292;28;20850;-70
2021/01/07 08:50:32;;;;;;;1.10;1.10;;;19.60;44.80;;;;;;5054579;28;20482;-69
2021/01/07 08:52:58;;;;;;;0.80;0.80;;;19.60;44.90;;;;;;5050482;28;20494;-70
2021/01/07 08:55:50;;;;;;;0.70;0.70;;;19.70;45.00;;;;;;5020434;28;20470;-70
2021/01/07 08:58:23;;;;;;;0.83;0.83;;;19.70;45.10;;;;;;5038768;28;20544;-70
2021/01/07 09:00:50;;;;;;;0.50;0.50;;;19.70;45.10;;;;;;5019634;28;21032;-71
2021/01/07 09:03:16;;;;;;;0.67;0.67;;;19.70;45.10;;;;;;5023149;28;20484;-69
2021/01/07 09:05:42;;;;;;;0.70;0.70;;;19.70;45.20;;;;;;5024462;28;20841;-69
2021/01/07 09:08:09;;;;;;;1.00;1.00;;;19.60;45.10;;;;;;5033349;28;20545;-69
2021/01/07 09:10:35;;;;;;;0.70;0.70;;;19.60;45.10;;;;;;5028555;28;20479;-69
2021/01/07 09:13:16;;;;;;;0.50;0.50;;;19.60;45.10;;;;;;5002848;28;20502;-69
2021/01/07 09:15:42;;;;;;;0.77;0.77;;;19.60;45.20;;;;;;5050180;28;20566;-70
2021/01/07 09:18:08;;;;;;;0.63;0.63;;;19.60;45.20;;;;;;5056912;28;21021;-69
2021/01/07 09:20:35;;;;;;;0.70;0.70;;;19.60;45.10;;;;;;5034872;28;20846;-70
2021/01/07 09:23:01;;;;;;;0.80;0.80;;;19.60;45.10;;;;;;5030346;28;20962;-69
2021/01/07 09:25:28;;;;;;;0.77;0.77;;;19.60;45.10;;;;;;5042134;28;21040;-69
2021/01/07 09:27:55;;;;;;;0.70;0.70;;;19.60;45.20;;;;;;5030476;28;20839;-69
2021/01/07 09:30:24;;;;;;;0.77;0.77;;;19.60;45.10;;;;;;5051731;28;20997;-68
2021/01/07 09:32:50;;;;;;;0.80;0.80;;;19.60;45.20;;;;;;5047415;28;21512;-68
2021/01/07 09:35:16;;;;;;;0.70;0.70;;;19.60;45.20;;;;;;5038912;28;20469;-69
2021/01/07 09:37:42;;;;;;;0.70;0.70;;;19.50;45.20;;;;;;5057409;28;20485;-70
2021/01/07 09:40:09;;;;;;;1.17;0.63;;;19.60;45.50;;;;;;5036601;28;20482;-69
2021/01/07 09:42:35;;;;;;;0.90;0.90;;;19.60;45.60;;;;;;5033829;28;20866;-70
2021/01/07 09:45:01;;;;;;;0.80;0.80;;;19.60;45.70;;;;;;5025265;28;20497;-69
2021/01/07 09:47:29;;;;;;;0.70;0.60;;;19.60;45.60;;;;;;5026209;28;20534;-68
2021/01/07 09:49:56;;;;;;;0.93;0.93;;;19.60;45.40;;;;;;5029196;28;20485;-68
2021/01/07 09:52:23;;;;;;;0.60;0.60;;;19.70;45.30;;;;;;5038740;28;20497;-69
2021/01/07 09:54:49;;;;;;;0.97;0.73;;;19.70;45.20;;;;;;5029818;28;20513;-69
2021/01/07 09:57:15;;;;;;;0.93;0.93;;;19.70;45.10;;;;;;4995547;28;20478;-68
2021/01/07 09:59:42;;;;;;;0.70;0.70;;;19.70;45.00;;;;;;5045338;28;20853;-69
2021/01/07 10:02:08;;;;;;;0.73;0.73;;;19.70;45.00;;;;;;5056760;28;20474;-69
2021/01/07 10:04:36;;;;;;;0.60;0.60;;;19.70;45.10;;;;;;5031856;28;20489;-69
2021/01/07 10:07:02;;;;;;;0.97;0.97;;;19.70;44.90;;;;;;5042216;28;20489;-69
2021/01/07 10:09:28;;;;;;;0.70;0.70;;;19.80;44.90;;;;;;5044766;28;20497;-69
2021/01/07 10:11:55;;;;;;;0.70;0.70;;;19.80;44.80;;;;;;5025787;28;20564;-69
2021/01/07 10:14:21;;;;;;;0.87;0.87;;;19.80;44.80;;;;;;5047536;28;20538;-69
2021/01/07 10:16:49;;;;;;;0.80;0.80;;;19.80;44.90;;;;;;5048639;28;20553;-69
2021/01/07 10:19:15;;;;;;;0.60;0.60;;;19.90;45.00;;;;;;5046793;28;20487;-69
2021/01/07 10:21:43;;;;;;;0.70;0.70;;;19.90;44.90;;;;;;5035042;28;20568;-69
2021/01/07 10:24:11;;;;;;;0.70;0.70;;;19.90;44.90;;;;;;5035411;28;20483;-69
2021/01/07 10:26:37;;;;;;;0.73;0.73;;;20.00;44.90;;;;;;5031754;28;20475;-69
2021/01/07 10:29:03;;;;;;;0.50;0.50;;;20.00;44.80;;;;;;5036520;28;21114;-69
2021/01/07 10:31:29;;;;;;;0.70;0.70;;;20.00;44.70;;;;;;5034514;28;21006;-70
2021/01/07 10:33:55;;;;;;;0.60;0.60;;;20.00;44.90;;;;;;5023537;28;21043;-69
2021/01/07 10:36:22;;;;;;;0.70;0.70;;;20.00;44.80;;;;;;5036933;28;20478;-70
2021/01/07 10:38:49;;;;;;;0.80;0.77;;;19.90;44.70;;;;;;5037546;28;20572;-69
2021/01/07 10:41:15;;;;;;;0.90;0.90;;;19.90;44.70;;;;;;5032597;28;20471;-69
2021/01/07 10:43:42;;;;;;;0.70;0.70;;;19.90;44.70;;;;;;5030696;28;20559;-70
2021/01/07 10:46:08;;;;;;;0.70;0.70;;;19.90;44.90;;;;;;5041896;28;20473;-69
2021/01/07 10:48:36;;;;;;;0.80;0.70;;;19.90;44.90;;;;;;5057354;28;20474;-69
2021/01/07 10:51:02;;;;;;;0.70;0.70;;;19.90;44.90;;;;;;5013123;28;21193;-69
2021/01/07 10:54:08;;;;;;;0.70;0.70;;;19.90;44.90;;;;;;5014774;28;20481;-69
2021/01/07 10:57:00;;;;;;;0.70;0.70;;;20.00;44.90;;;;;;5043989;28;20482;-69
2021/01/07 10:59:33;;;;;;;0.53;0.53;;;20.00;44.90;;;;;;4986555;28;20481;-69
2021/01/07 11:02:26;;;;;;;0.60;0.60;;;20.00;45.00;;;;;;5031503;28;20537;-69
2021/01/07 11:05:08;;;;;;;0.50;0.50;;;20.00;44.90;;;;;;5054893;28;20465;-69
2021/01/07 11:07:36;;;;;;;0.60;0.60;;;19.90;45.00;;;;;;5046016;28;20485;-69
2021/01/07 11:10:05;;;;;;;0.60;0.60;;;19.90;45.10;;;;;;5044310;28;20963;-69
2021/01/07 11:12:33;;;;;;;0.70;0.70;;;19.80;44.90;;;;;;5024342;28;20497;-69
2021/01/07 11:15:01;;;;;;;0.70;0.70;;;19.80;44.90;;;;;;5053563;28;20492;-69
2021/01/07 11:17:27;;;;;;;0.60;0.60;;;19.80;44.90;;;;;;5050439;28;21028;-69
2021/01/07 11:19:53;;;;;;;0.70;0.70;;;19.90;45.00;;;;;;5051773;28;20485;-68
2021/01/07 11:22:21;;;;;;;0.50;0.50;;;19.90;44.90;;;;;;5029745;28;20481;-69
2021/01/07 11:24:47;;;;;;;0.80;0.60;;;19.90;44.90;;;;;;5007016;28;20478;-69
2021/01/07 11:27:14;;;;;;;0.57;0.57;;;19.90;44.80;;;;;;5048763;28;20916;-68
2021/01/07 11:29:41;;;;;;;0.67;0.67;;;19.90;44.90;;;;;;5022772;28;20480;-70
2021/01/07 11:32:08;;;;;;;0.70;0.70;;;19.90;44.80;;;;;;5031975;28;20498;-68
2021/01/07 11:34:34;;;;;;;0.67;0.67;;;19.90;44.80;;;;;;5038344;28;20487;-68
2021/01/07 11:37:04;;;;;;;0.63;0.63;;;19.90;44.90;;;;;;5024491;28;20490;-69
2021/01/07 11:39:34;;;;;;;0.77;0.77;;;19.90;44.90;;;;;;5012646;28;20483;-70
2021/01/07 11:42:05;;;;;;;0.50;0.50;;;19.90;45.00;;;;;;5033345;28;20496;-69
2021/01/07 11:44:37;;;;;;;0.60;0.60;;;19.90;45.00;;;;;;5064541;28;21081;-69
2021/01/07 11:47:07;;;;;;;0.50;0.50;;;19.90;45.00;;;;;;5053409;28;20914;-70
2021/01/07 11:49:36;;;;;;;0.70;0.70;;;19.90;44.90;;;;;;5039648;28;21122;-70
2021/01/07 11:52:02;;;;;;;0.60;0.60;;;19.90;45.00;;;;;;5050974;28;20496;-69
2021/01/07 11:54:28;;;;;;;0.70;0.70;;;19.90;45.10;;;;;;5023065;28;20482;-69
2021/01/07 11:56:54;;;;;;;0.60;0.60;;;19.90;44.90;;;;;;5051109;28;21658;-69
2021/01/07 11:59:20;;;;;;;0.40;0.40;;;19.90;45.00;;;;;;5056662;28;20501;-70
2021/01/07 12:01:47;;;;;;;0.60;0.60;;;19.90;45.00;;;;;;5055375;28;20515;-70
2021/01/07 12:04:14;;;;;;;0.70;0.70;;;19.90;45.00;;;;;;5064532;28;20492;-69
2021/01/07 12:06:43;;;;;;;0.50;0.50;;;19.90;45.00;;;;;;5055905;28;20506;-69
2021/01/07 12:09:13;;;;;;;0.60;0.60;;;19.90;44.90;;;;;;5053761;28;20539;-70
2021/01/07 12:11:43;;;;;;;0.60;0.60;;;19.90;44.90;;;;;;5043646;28;20480;-70
2021/01/07 12:14:11;;;;;;;0.53;0.53;;;19.90;44.90;;;;;;5042023;28;20485;-69
2021/01/07 12:16:46;;;;;;;0.60;0.60;;;19.90;44.90;;;;;;5039137;28;20501;-70
2021/01/07 12:19:13;;;;;;;0.70;0.70;;;19.90;44.90;;;;;;5056159;28;20525;-67
2021/01/07 12:21:39;;;;;;;0.60;0.60;;;19.90;45.00;;;;;;5045406;28;20478;-67
2021/01/07 12:24:08;;;;;;;0.77;0.70;;;19.90;45.00;;;;;;5054946;28;20484;-68
2021/01/07 12:26:34;;;;;;;0.70;0.70;;;19.90;45.00;;;;;;5026254;28;20555;-68
2021/01/07 12:29:00;;;;;;;0.50;0.50;;;19.80;45.10;;;;;;5043652;28;20505;-68
2021/01/07 12:31:27;;;;;;;0.70;0.70;;;19.80;45.20;;;;;;5045060;28;20780;-68
2021/01/07 12:34:02;;;;;;;0.60;0.60;;;19.90;45.30;;;;;;5029500;28;20536;-68
2021/01/07 12:36:37;;;;;;;0.80;0.80;;;19.90;45.50;;;;;;5021701;28;20569;-68
2021/01/07 12:39:05;;;;;;;0.60;0.60;;;19.90;45.50;;;;;;5033479;28;20521;-68
2021/01/07 12:41:36;;;;;;;0.70;0.60;;;20.00;45.50;;;;;;5028935;28;20521;-69
2021/01/07 12:44:06;;;;;;;0.70;0.70;;;20.00;45.40;;;;;;5035026;28;20521;-69
2021/01/07 12:46:34;;;;;;;0.60;0.60;;;19.90;45.30;;;;;;5031781;28;20548;-69
2021/01/07 12:49:01;;;;;;;0.60;0.60;;;20.00;45.30;;;;;;5033196;28;21350;-70